CPX423 Details

Departure: Philip S.W. Goldson International Airport (MZBZ)
Arrival: Miami International Airport (KMIA) at N/A
Route: FRANT UG765 MAXIM EADEN CURSO5
Notes:


Current Weather Information
MZBZ 171600Z 09008KT 9999 -SHRA BKN023 31/27 A2995 Q1014 NOSIG RMK DIST SHWRS-SE CB TOP-E
KMIA 171553Z 17007KT 10SM SCT035 BKN250 33/23 A3011 RMK AO2 SLP194 T03280228